createdAt,value
2023-01-30T00:03:30.963Z,32.10
2023-01-30T00:08:32.656Z,31.27
2023-01-30T00:13:34.537Z,32.10
2023-01-30T00:18:37.650Z,33.33
2023-01-30T00:23:39.329Z,34.80
2023-01-30T00:28:41.110Z,34.90
2023-01-30T00:33:44.366Z,35.23
2023-01-30T00:38:46.145Z,31.27
2023-01-30T00:44:06.375Z,35.43
2023-01-30T00:49:09.375Z,37.97
2023-01-30T00:54:11.050Z,37.87
2023-01-30T00:59:12.814Z,38.63
2023-01-30T01:04:15.875Z,37.20
2023-01-30T01:09:17.609Z,39.77
2023-01-30T01:14:19.385Z,39.90
2023-01-30T01:19:23.267Z,41.87
2023-01-30T01:24:24.997Z,41.90
2023-01-30T01:29:26.682Z,50.90
2023-01-30T01:34:29.759Z,41.67
2023-01-30T01:39:50.037Z,45.43
2023-01-30T01:45:00.973Z,54.93
2023-01-30T01:50:04.507Z,49.33
2023-01-30T01:55:07.455Z,54.73
2023-01-30T02:00:11.595Z,45.53
2023-01-30T02:05:18.079Z,45.20
2023-01-30T02:10:21.715Z,53.10
2023-01-30T02:15:23.434Z,55.83
2023-01-30T02:20:32.104Z,50.63
2023-01-30T02:25:55.722Z,52.57
2023-01-30T02:31:07.543Z,52.83
2023-01-30T02:36:14.905Z,46.60
2023-01-30T02:41:21.980Z,57.93
2023-01-30T02:46:26.667Z,48.53
2023-01-30T02:51:29.521Z,47.20
2023-01-30T02:56:43.638Z,45.70
2023-01-30T03:02:09.422Z,44.03
2023-01-30T03:07:17.479Z,45.47
2023-01-30T03:12:23.449Z,40.53
2023-01-30T03:17:27.092Z,43.30
2023-01-30T03:22:29.079Z,43.80
2023-01-30T03:27:31.165Z,40.77
2023-01-30T03:32:34.272Z,41.97
2023-01-30T03:37:36.446Z,42.13
2023-01-30T03:42:38.807Z,46.43
2023-01-30T03:47:42.096Z,46.83
2023-01-30T03:52:43.989Z,47.90
2023-01-30T03:57:49.408Z,47.73
2023-01-30T04:02:55.166Z,45.07
2023-01-30T04:07:57.090Z,42.77
2023-01-30T04:12:59.261Z,43.90
2023-01-30T04:18:02.919Z,44.97
2023-01-30T04:23:21.562Z,42.43
2023-01-30T04:28:23.980Z,47.20
2023-01-30T04:33:27.534Z,46.00
2023-01-30T04:38:30.215Z,40.57
2023-01-30T04:43:32.242Z,41.50
2023-01-30T04:48:53.974Z,38.70
2023-01-30T04:53:55.702Z,41.00
2023-01-30T04:58:57.397Z,38.93
2023-01-30T05:04:05.035Z,36.83
2023-01-30T05:09:06.804Z,36.33
2023-01-30T05:14:08.492Z,50.20
2023-01-30T05:19:12.097Z,32.60
2023-01-30T05:24:13.825Z,30.37
2023-01-30T05:29:15.502Z,25.17
2023-01-30T05:34:18.524Z,24.70
2023-01-30T05:39:20.252Z,20.63
2023-01-30T05:44:22.003Z,18.80
2023-01-30T05:49:25.035Z,19.57
2023-01-30T05:54:26.712Z,19.57
2023-01-30T05:59:28.381Z,18.97
2023-01-30T06:04:31.406Z,17.80
2023-01-30T06:09:33.099Z,18.53
2023-01-30T06:14:34.771Z,18.17
2023-01-30T06:19:37.812Z,15.40
2023-01-30T06:24:39.481Z,17.53
2023-01-30T06:29:41.140Z,19.80
2023-01-30T06:34:44.118Z,17.90
2023-01-30T06:39:45.756Z,17.37
2023-01-30T06:44:47.374Z,25.53
2023-01-30T06:49:50.346Z,19.47
2023-01-30T06:54:51.975Z,23.13
2023-01-30T06:59:53.610Z,18.30
2023-01-30T07:04:56.647Z,13.10
2023-01-30T07:10:07.371Z,11.97
2023-01-30T07:15:10.240Z,12.93
2023-01-30T07:20:14.792Z,16.03
2023-01-30T07:25:17.022Z,10.57
2023-01-30T07:30:19.361Z,15.70
2023-01-30T07:35:22.874Z,17.17
2023-01-30T07:40:24.717Z,24.30
2023-01-30T07:45:28.029Z,19.00
2023-01-30T07:50:31.035Z,15.90
2023-01-30T07:55:32.784Z,30.00
2023-01-30T08:00:35.208Z,26.17
2023-01-30T08:05:38.284Z,20.73
2023-01-30T08:10:39.956Z,29.87
2023-01-30T08:15:41.649Z,25.87
2023-01-30T08:20:44.681Z,22.67
2023-01-30T08:25:46.352Z,30.60
2023-01-30T08:30:49.251Z,27.07
2023-01-30T08:35:52.310Z,23.03
2023-01-30T08:40:53.976Z,24.20
2023-01-30T08:45:55.786Z,26.60
2023-01-30T08:50:58.816Z,30.40
2023-01-30T08:56:00.465Z,25.57
2023-01-30T09:01:05.470Z,23.53
2023-01-30T09:06:08.632Z,21.70
2023-01-30T09:11:10.364Z,21.10
2023-01-30T09:16:12.267Z,19.17
2023-01-30T09:21:15.277Z,16.87
2023-01-30T09:26:17.054Z,15.77
2023-01-30T09:31:18.826Z,20.57
2023-01-30T09:36:21.863Z,20.03
2023-01-30T09:41:41.050Z,21.23
2023-01-30T09:46:45.894Z,27.23
2023-01-30T09:51:55.810Z,25.73
2023-01-30T09:57:01.873Z,25.97
2023-01-30T10:02:13.340Z,29.20
2023-01-30T10:07:20.203Z,25.20
2023-01-30T10:12:31.186Z,22.07
2023-01-30T10:17:36.636Z,22.77
2023-01-30T10:22:45.667Z,21.10
2023-01-30T10:27:52.439Z,13.80
2023-01-30T10:32:56.910Z,22.00
2023-01-30T10:38:02.980Z,19.90
2023-01-30T10:43:09.558Z,18.17
2023-01-30T10:48:23.301Z,20.57
2023-01-30T10:53:33.106Z,15.70
2023-01-30T10:58:38.706Z,14.50
2023-01-30T11:03:41.915Z,18.80
2023-01-30T11:08:44.964Z,15.67
2023-01-30T11:13:46.689Z,20.90
2023-01-30T11:24:17.120Z,5.17
2023-01-30T11:29:27.797Z,3.47
2023-01-30T11:34:29.468Z,2.93
2023-01-30T11:39:34.737Z,6.03
2023-01-30T11:44:37.337Z,3.73
2023-01-30T11:49:55.822Z,15.60
2023-01-30T11:55:08.470Z,14.63
2023-01-30T12:00:15.012Z,11.60
2023-01-30T12:05:24.264Z,13.37
2023-01-30T12:10:29.621Z,12.47
2023-01-30T12:15:31.904Z,10.93
2023-01-30T12:20:42.061Z,7.27
2023-01-30T12:25:50.629Z,9.93
2023-01-30T12:30:55.055Z,10.60
2023-01-30T12:36:03.025Z,7.80
2023-01-30T12:41:14.223Z,4.57
2023-01-30T12:46:29.744Z,10.20
2023-01-30T12:51:39.336Z,7.77
2023-01-30T12:56:49.407Z,11.33
2023-01-30T13:01:58.170Z,12.80
2023-01-30T13:07:06.034Z,16.97
2023-01-30T13:12:12.983Z,19.87
2023-01-30T13:17:21.200Z,23.03
2023-01-30T13:22:24.466Z,16.80
2023-01-30T13:27:27.446Z,20.93
2023-01-30T13:32:34.724Z,18.67
2023-01-30T13:37:36.577Z,14.67
2023-01-30T13:42:42.752Z,19.50
2023-01-30T13:47:48.855Z,19.13
2023-01-30T13:52:53.660Z,24.63
2023-01-30T13:58:00.511Z,14.90
2023-01-30T14:03:25.329Z,11.80
2023-01-30T14:08:27.949Z,17.40
2023-01-30T14:13:32.255Z,19.47
2023-01-30T14:18:36.028Z,23.50
2023-01-30T14:23:37.700Z,25.77
2023-01-30T14:28:45.890Z,21.97
2023-01-30T14:33:48.533Z,16.30
2023-01-30T14:38:56.645Z,13.93
2023-01-30T14:43:59.711Z,14.50
2023-01-30T14:49:04.957Z,16.87
2023-01-30T14:54:08.106Z,19.60
2023-01-30T14:59:19.208Z,24.63
2023-01-30T15:04:20.867Z,31.20
2023-01-30T15:09:23.670Z,18.77
2023-01-30T15:14:28.048Z,16.43
2023-01-30T15:19:49.759Z,24.33
2023-01-30T15:25:18.182Z,15.37
2023-01-30T15:30:24.304Z,22.17
2023-01-30T15:35:27.619Z,25.47
2023-01-30T15:40:29.729Z,24.27
2023-01-30T15:45:37.031Z,18.53
2023-01-30T15:50:38.690Z,13.83
2023-01-30T15:55:41.546Z,17.97
2023-01-30T16:00:46.483Z,18.93
2023-01-30T16:05:48.483Z,11.60
2023-01-30T16:10:51.608Z,21.53
2023-01-30T16:15:56.683Z,16.97
2023-01-30T16:21:02.364Z,18.70
2023-01-30T16:26:04.968Z,19.27
2023-01-30T16:31:08.576Z,21.37
2023-01-30T16:36:33.071Z,22.53
2023-01-30T16:41:35.478Z,21.07
2023-01-30T16:46:50.538Z,31.60
2023-01-30T16:51:59.921Z,29.73
2023-01-30T16:57:01.745Z,23.87
2023-01-30T17:02:05.321Z,24.87
2023-01-30T17:07:07.035Z,28.57
2023-01-30T17:12:37.213Z,26.37
2023-01-30T17:17:40.367Z,20.57
2023-01-30T17:22:43.250Z,27.27
2023-01-30T17:27:44.954Z,22.73
2023-01-30T17:32:50.622Z,34.63
2023-01-30T17:38:04.744Z,29.77
2023-01-30T17:43:09.425Z,29.60
2023-01-30T17:48:13.267Z,39.60
2023-01-30T17:53:14.974Z,20.33
2023-01-30T17:58:19.362Z,28.10
2023-01-30T18:03:22.384Z,25.83
2023-01-30T18:08:24.038Z,33.30
2023-01-30T18:13:26.083Z,27.20
2023-01-30T18:18:29.216Z,20.30
2023-01-30T18:23:30.973Z,30.77
2023-01-30T18:28:32.656Z,27.83
2023-01-30T18:33:35.720Z,22.57
2023-01-30T18:38:37.439Z,27.03
2023-01-30T18:43:39.230Z,28.43
2023-01-30T18:48:42.441Z,21.07
2023-01-30T18:53:44.189Z,28.87
2023-01-30T18:58:45.947Z,29.57
2023-01-30T19:03:48.949Z,25.53
2023-01-30T19:08:51.151Z,23.03
2023-01-30T19:13:53.451Z,22.07
2023-01-30T19:18:56.507Z,20.90
2023-01-30T19:23:58.411Z,18.20
2023-01-30T19:29:00.190Z,20.83
2023-01-30T19:34:06.050Z,17.60
2023-01-30T19:39:08.907Z,24.80
2023-01-30T19:44:11.058Z,25.07
2023-01-30T19:49:14.122Z,17.90
2023-01-30T19:54:16.040Z,26.83
2023-01-30T19:59:17.989Z,26.20
2023-01-30T20:04:21.043Z,21.50
2023-01-30T20:09:22.721Z,21.73
2023-01-30T20:14:24.633Z,33.83
2023-01-30T20:19:27.813Z,29.50
2023-01-30T20:24:29.684Z,32.37
2023-01-30T20:29:31.370Z,33.80
2023-01-30T20:34:34.385Z,26.03
2023-01-30T20:39:36.260Z,14.53
2023-01-30T20:44:38.361Z,35.93
2023-01-30T20:49:42.288Z,35.23
2023-01-30T20:54:43.946Z,29.20
2023-01-30T20:59:46.679Z,28.20
2023-01-30T21:04:49.759Z,32.50
2023-01-30T21:09:51.460Z,36.00
2023-01-30T21:14:53.120Z,26.03
2023-01-30T21:19:56.192Z,35.03
2023-01-30T21:24:57.990Z,26.40
2023-01-30T21:30:00.382Z,22.77
2023-01-30T21:35:03.593Z,19.67
2023-01-30T21:40:25.591Z,26.67
2023-01-30T21:45:27.244Z,22.10
2023-01-30T21:50:30.211Z,16.30
2023-01-30T21:55:31.924Z,22.87
2023-01-30T22:00:33.611Z,15.77
2023-01-30T22:05:37.568Z,17.37
2023-01-30T22:10:39.823Z,18.90
2023-01-30T22:15:41.705Z,19.70
2023-01-30T22:20:44.761Z,22.37
2023-01-30T22:25:53.742Z,18.53
2023-01-30T22:31:02.484Z,26.90
2023-01-30T22:36:07.000Z,26.40
2023-01-30T22:41:14.500Z,25.67
2023-01-30T22:46:16.631Z,20.80
2023-01-30T22:51:21.349Z,22.00
2023-01-30T22:56:24.083Z,27.73
2023-01-30T23:01:26.690Z,24.93
2023-01-30T23:06:31.253Z,18.17
2023-01-30T23:11:34.362Z,22.03
2023-01-30T23:16:36.943Z,23.60
2023-01-30T23:21:41.049Z,27.73
2023-01-30T23:26:45.096Z,23.80
2023-01-30T23:31:47.107Z,28.27
2023-01-30T23:36:50.117Z,26.20
2023-01-30T23:41:51.806Z,31.40
2023-01-30T23:46:53.528Z,27.73
2023-01-30T23:51:56.614Z,22.73
2023-01-30T23:56:58.262Z,29.03
